Flight Track Log - Related Links

Times and Time Zones

All times are in EDT time to prevent confusion due to time zone crossing. See the NKS416 flight status page for this flight to view local times or setup timezone preferences in your user account.

Time Position Orientation Groundspeed Altitude Reporting Facility
EDT Latitude Longitude Course Direction KTS MPH feet Rate Location/Type
Mon 10:04:46 PM 26.0750 -80.1367 83° East 169 194 700  Level Miami Center
Mon 10:05:59 PM 26.0828 -80.0653 83° East 221 254 2,600 2,211 Climbing Miami Center
Mon 10:07:18 PM 26.1164 -79.9597 70° East 276 318 6,300 2,759 Climbing Miami Center
Mon 10:08:16 PM 26.1453 -79.8794 68° East 276 318 8,900 2,288 Climbing Miami Center
Mon 10:09:16 PM 26.1786 -79.7853 68° East 297 342 10,800 1,934 Climbing Miami Center
Mon 10:10:17 PM 26.2389 -79.6894 55° Northeast 331 381 12,800 2,066 Climbing Miami Center
Mon 10:11:18 PM 26.2928 -79.6006 56° Northeast 370 426 15,000 2,182 Climbing Miami Center
Mon 10:12:18 PM 26.3861 -79.5167 39° Northeast 385 443 17,200 1,669 Climbing Miami Center
Mon 10:17:39 PM 26.9692 -79.1938 26° Northeast 456 525 25,600 1,556 Climbing FlightAware ADS-B
Mon 10:18:09 PM 27.0260 -79.1626 26° Northeast 458 527 26,300 1,217 Climbing FlightAware ADS-B
Mon 10:18:48 PM 27.1002 -79.1216 26° Northeast 466 536 27,000 1,139 Climbing FlightAware ADS-B
Mon 10:19:28 PM 27.1798 -79.0775 27° Northeast 471 542 27,800 1,029 Climbing FlightAware ADS-B
Mon 10:19:58 PM 27.2380 -79.0451 26° Northeast 478 550 28,200 885 Climbing FlightAware ADS-B
Mon 10:20:29 PM 27.2992 -79.0113 26° Northeast 481 554 28,700 1,082 Climbing FlightAware ADS-B
Mon 10:20:59 PM 27.3596 -78.9801 22° Northeast 479 551 29,300 1,180 Climbing FlightAware ADS-B
Mon 10:21:30 PM 27.4235 -78.9551 17° North 473 544 29,900 1,417 Climbing FlightAware ADS-B
Mon 10:22:11 PM 27.5004 -78.9356 North 457 526 31,000 1,500 Climbing FlightAware ADS-B
Mon 10:23:10 PM 27.6346 -78.9163 North 450 518 32,400 1,266 Climbing FlightAware ADS-B
Mon 10:24:00 PM 27.7381 -78.9018 North 449 517 33,300 955 Climbing FlightAware ADS-B
Mon 10:24:38 PM 27.8177 -78.8907 North 454 522 33,800 1,000 Climbing FlightAware ADS-B
Mon 10:25:12 PM 27.8879 -78.8809 North 450 518 34,500 1,125 Climbing FlightAware ADS-B
Mon 10:25:42 PM 27.9476 -78.8721 North 446 513 35,000 423 Climbing FlightAware ADS-B
Mon 10:26:23 PM 28.0328 -78.8599 North 442 509 35,000  Level FlightAware ADS-B
Mon 10:27:03 PM 28.1160 -78.8485 North 447 514 35,000  Level FlightAware ADS-B
Mon 10:27:33 PM 28.1759 -78.8402 North 449 517 35,000  Level FlightAware ADS-B
Mon 10:28:04 PM 28.2358 -78.8318 North 448 516 35,000  Level FlightAware ADS-B
Mon 10:28:40 PM 28.3158 -78.8203 North 448 516 35,000  Level FlightAware ADS-B
Mon 10:29:26 PM 28.4086 -78.8071 North 448 516 35,000  Level FlightAware ADS-B
Mon 10:32:55 PM 28.8302 -78.7470 North 449 517 35,000  Level FlightAware ADS-B
Mon 10:33:26 PM 28.9051 -78.7363 North 449 517 35,000 -73 Level FlightAware ADS-B
Mon 10:34:17 PM 28.9875 -78.7286 North 447 514 34,900  Descending Miami Center
Mon 10:35:18 PM 29.1131 -78.7117 North 447 514 35,000  Climbing Miami Center
Mon 10:36:16 PM 29.2300 -78.6897 North 442 509 34,900  Descending Miami Center
Mon 10:37:18 PM 29.3556 -78.6775 North 448 516 35,000 49 Climbing Miami Center
Mon 10:38:18 PM 29.4786 -78.6581 North 441 507 35,000  Level Miami Center
Mon 10:39:17 PM 29.6019 -78.6436 North 441 507 35,000 -45 Level Miami Center
Mon 10:40:31 PM 29.7650 -78.6172 North 450 518 34,900 -45 Descending Jacksonville Center
Mon 10:41:31 PM 29.8853 -78.6000 North 445 512 34,900 50 Level Jacksonville Center
Mon 10:42:31 PM 30.0078 -78.5778 North 441 507 35,000 50 Climbing Jacksonville Center
Mon 10:43:31 PM 30.1306 -78.5653 North 434 499 35,000 -50 Level Jacksonville Center
Mon 10:44:31 PM 30.2406 -78.5483 North 448 516 34,900 -50 Descending Jacksonville Center
Mon 10:45:31 PM 30.3608 -78.5306 North 440 506 34,900  Level Jacksonville Center
Mon 10:46:31 PM 30.4814 -78.5131 North 440 506 34,900  Level Jacksonville Center
Mon 10:47:31 PM 30.6081 -78.4906 North 446 513 34,900 50 Level Jacksonville Center
Mon 10:48:31 PM 30.7325 -78.4703 North 447 514 35,000 50 Climbing Jacksonville Center
Mon 10:49:31 PM 30.8592 -78.4497 North 447 514 35,000  Level Jacksonville Center
Mon 10:50:31 PM 30.9858 -78.4317 North 449 517 35,000  Level Jacksonville Center
Mon 10:51:31 PM 31.1022 -78.4139 North 449 517 35,000 -50 Level Jacksonville Center
Mon 10:52:31 PM 31.2244 -78.3911 North 444 511 34,900  Descending Jacksonville Center
Mon 10:53:31 PM 31.3428 -78.3708 North 437 503 35,000 50 Climbing Jacksonville Center
Mon 10:54:31 PM 31.4569 -78.3533 North 426 490 35,000  Level Jacksonville Center
Mon 10:55:31 PM 31.5731 -78.3331 North 420 483 35,000 -50 Level Jacksonville Center
Mon 10:56:31 PM 31.6914 -78.3125 North 420 483 34,900 -50 Descending Jacksonville Center
Mon 10:57:31 PM 31.8056 -78.2944 North 420 483 34,900  Level Jacksonville Center
Mon 10:58:31 PM 31.9217 -78.2767 North 425 489 34,900 50 Level Jacksonville Center
Mon 10:59:31 PM 32.0400 -78.2558 North 425 489 35,000  Climbing Jacksonville Center
Mon 11:00:31 PM 32.1581 -78.2353 North 425 489 34,900 -50 Descending Jacksonville Center
Mon 11:01:31 PM 32.2742 -78.2122 10° North 425 489 34,900  Level Jacksonville Center
Mon 11:02:31 PM 32.3925 -78.1939 North 425 489 34,900 50 Level Jacksonville Center
Mon 11:03:31 PM 32.5150 -78.1775 North 425 489 35,000 50 Climbing Jacksonville Center
Mon 11:04:31 PM 32.6353 -78.1564 North 430 495 35,000  Level Jacksonville Center
Mon 11:05:31 PM 32.7556 -78.1353 North 430 495 35,000  Level Jacksonville Center
Mon 11:06:31 PM 32.8781 -78.1189 North 435 501 35,000  Level Jacksonville Center
Mon 11:07:31 PM 33.0003 -78.0978 North 440 506 35,000 -50 Level Jacksonville Center
Mon 11:08:31 PM 33.1164 -78.0767 North 440 506 34,900 -50 Descending Jacksonville Center
Mon 11:09:31 PM 33.2347 -78.0603 North 432 497 34,900  Level Jacksonville Center
Mon 11:11:00 PM 33.4064 -78.0319 North 424 488 34,900  Level Washington Center
Mon 11:12:01 PM 33.5236 -78.0128 North 418 481 34,900 50 Level Washington Center
Mon 11:13:00 PM 33.6428 -77.9939 North 418 481 35,000 50 Climbing Washington Center
Mon 11:14:00 PM 33.7644 -77.9722 North 430 495 35,000  Level Washington Center
Mon 11:15:01 PM 33.8878 -77.9583 North 430 495 35,000 50 Level Washington Center
Mon 11:16:00 PM 34.0106 -77.9619 359° North 441 507 35,100 50 Climbing Washington Center
Mon 11:17:00 PM 34.1314 -77.9703 357° North 441 507 35,100 -50 Level Washington Center
Mon 11:18:01 PM 34.2525 -77.9764 358° North 436 502 35,000 -26 Descending Washington Center
Mon 11:20:50 PM 34.3097 -77.9793 357° North 434 499 35,000  Level FlightAware ADS-B
Mon 11:25:58 PM 35.2221 -78.0226 357° North 436 502 35,000  Level FlightAware ADS-B
Mon 11:26:38 PM 35.3019 -78.0263 357° North 436 502 35,000 79 Level FlightAware ADS-B
Mon 11:27:14 PM 35.3756 -78.0327 354° North 430 495 35,100  Climbing FlightAware ADS-B
Mon 11:27:53 PM 35.4515 -78.0421 354° North 427 491 35,000 -73 Descending FlightAware ADS-B
Mon 11:28:36 PM 35.5353 -78.0510 355° North 421 484 35,000  Level FlightAware ADS-B
Mon 11:29:16 PM 35.6147 -78.0596 354° North 416 479 35,000  Level FlightAware ADS-B
Mon 11:29:56 PM 35.6912 -78.0681 354° North 413 475 35,000  Level FlightAware ADS-B
Mon 11:30:28 PM 35.7515 -78.0746 355° North 411 473 35,000  Level FlightAware ADS-B
Mon 11:31:16 PM 35.8445 -78.0848 355° North 410 472 35,000  Level FlightAware ADS-B
Mon 11:31:48 PM 35.8863 -78.0893 355° North 410 472 35,000  Level FlightAware ADS-B
Mon 11:32:35 PM 35.9658 -78.0979 355° North 410 472 35,000  Level FlightAware ADS-B
Mon 11:34:02 PM 36.1567 -78.1183 355° North 406 467 35,000  Level Washington Center
Mon 11:35:00 PM 36.2711 -78.1322 354° North 406 467 35,000  Level Washington Center
Mon 11:36:01 PM 36.3856 -78.1436 355° North 406 467 35,000  Level Washington Center
Mon 11:37:00 PM 36.5000 -78.1578 354° North 406 467 35,000  Level Washington Center
Mon 11:38:00 PM 36.6144 -78.1719 354° North 406 467 35,000  Level Washington Center
Mon 11:39:01 PM 36.7164 -78.1806 356° North 406 467 35,000  Level Washington Center
Mon 11:40:00 PM 36.8308 -78.1947 354° North 406 467 35,000  Level Washington Center
Mon 11:41:01 PM 36.9494 -78.2089 355° North 411 473 35,000  Level Washington Center
Mon 11:47:12 PM 37.6727 -78.2883 355° North 403 464 35,000  Level FlightAware ADS-B (KCHO)
Mon 11:48:02 PM 37.7717 -78.2997 355° North 403 464 35,000  Level FlightAware ADS-B (KCHO)
Mon 11:48:34 PM 37.8314 -78.3064 355° North 403 464 35,000  Level FlightAware ADS-B (KCHO)
Mon 11:49:05 PM 37.8837 -78.3124 355° North 403 464 35,000  Level FlightAware ADS-B (KCHO)
Mon 11:49:54 PM 37.9715 -78.3223 355° North 402 463 35,000  Level FlightAware ADS-B (KCHO)
Mon 11:50:25 PM 38.0253 -78.3285 355° North 401 461 35,000  Level FlightAware ADS-B (KCHO)
Mon 11:51:04 PM 38.1092 -78.3383 355° North 400 460 35,000  Level FlightAware ADS-B (KCHO)
Mon 11:51:54 PM 38.2011 -78.3489 355° North 400 460 35,000  Level FlightAware ADS-B (KCHO)
Mon 11:53:22 PM 38.3534 -78.3665 355° North 401 461 35,000  Level FlightAware ADS-B (KCHO)
Mon 11:55:22 PM 38.5855 -78.3936 355° North 403 464 35,000  Level FlightAware ADS-B (KCHO)
Mon 11:56:07 PM 38.6531 -78.4022 355° North 402 463 35,000  Level Cleveland Center
Mon 11:57:08 PM 38.7681 -78.4153 355° North 402 463 35,000  Level Cleveland Center
Mon 11:58:08 PM 38.8778 -78.4289 354° North 402 463 35,000  Level Cleveland Center
Mon 11:59:09 PM 38.9906 -78.4422 355° North 403 464 35,000  Level Cleveland Center
Tue 12:00:09 AM 39.1033 -78.4558 355° North 403 464 35,000  Level Cleveland Center
Tue 12:01:10 AM 39.2167 -78.4686 355° North 403 464 35,000  Level Cleveland Center
Tue 12:02:10 AM 39.3286 -78.4828 354° North 403 464 35,000  Level Cleveland Center
Tue 12:03:11 AM 39.4397 -78.4956 355° North 403 464 35,000  Level Cleveland Center
Tue 12:04:11 AM 39.5506 -78.5081 355° North 403 464 35,000  Level Cleveland Center
Tue 12:10:12 AM 40.2210 -78.5894 355° North 397 457 35,000 14 Level FlightAware ADS-B
Tue 12:11:06 AM 40.3220 -78.6017 355° North 397 457 35,100  Climbing FlightAware ADS-B
Tue 12:14:58 AM 40.7336 -78.6525 355° North 388 447 35,000 -19 Descending FlightAware ADS-B (CYYZ)
Tue 12:16:14 AM 40.8728 -78.6699 355° North 384 442 35,000  Level FlightAware ADS-B (CYYZ)
Tue 12:16:26 AM 40.8908 -78.6722 355° North 384 442 35,000 -800 Level FlightAware ADS-B (CYYZ)
Tue 12:18:14 AM 41.0858 -78.6967 355° North 394 453 33,400 -923 Descending FlightAware ADS-B (CYYZ)
Tue 12:18:49 AM 41.1499 -78.7048 355° North 396 456 32,800 -943 Descending FlightAware ADS-B (CYYZ)
Tue 12:19:24 AM 41.2132 -78.7128 355° North 401 461 32,300 -923 Descending FlightAware ADS-B (CYYZ)
Tue 12:19:54 AM 41.2605 -78.7188 355° North 400 460 31,800 -1,000 Descending FlightAware ADS-B (CYYZ)
Tue 12:20:24 AM 41.3243 -78.7268 355° North 402 463 31,300 -1,000 Descending FlightAware ADS-B (CYYZ)
Tue 12:20:54 AM 41.3814 -78.7343 355° North 409 471 30,800 -1,000 Descending FlightAware ADS-B (CYYZ)
Tue 12:21:24 AM 41.4363 -78.7412 355° North 411 473 30,300 -1,000 Descending FlightAware ADS-B (CYYZ)
Tue 12:21:54 AM 41.4954 -78.7488 355° North 413 475 29,800 -984 Descending FlightAware ADS-B (CYYZ)
Tue 12:22:25 AM 41.5522 -78.7560 355° North 415 478 29,300 -1,000 Descending FlightAware ADS-B (CYYZ)
Tue 12:22:54 AM 41.6088 -78.7632 355° North 414 476 28,800 -1,017 Descending FlightAware ADS-B (CYYZ)
Tue 12:23:24 AM 41.6644 -78.7702 355° North 411 473 28,300 -915 Descending FlightAware ADS-B (CYYZ)
Tue 12:23:53 AM 41.7211 -78.7775 355° North 407 468 27,900 -900 Descending FlightAware ADS-B (CYYZ)
Tue 12:24:24 AM 41.7779 -78.7848 355° North 404 465 27,400 -1,065 Descending FlightAware ADS-B (CYYZ)
Tue 12:24:55 AM 41.8348 -78.7921 355° North 401 461 26,800 -1,000 Descending FlightAware ADS-B (CYYZ)
Tue 12:25:24 AM 41.8894 -78.7992 355° North 398 458 26,400 -915 Descending FlightAware ADS-B (CYYZ)
Tue 12:25:54 AM 41.9442 -78.8062 355° North 394 453 25,900 -1,600 Descending FlightAware ADS-B (CYYZ)
Tue 12:26:24 AM 41.9954 -78.8129 355° North 392 451 24,800 -2,400 Descending FlightAware ADS-B (CYYZ)
Tue 12:26:54 AM 42.0514 -78.8203 355° North 390 449 23,500 -2,600 Descending FlightAware ADS-B (CYYZ)
Tue 12:27:24 AM 42.1057 -78.8273 355° North 388 447 22,200 -2,600 Descending FlightAware ADS-B (CYYZ)
Tue 12:27:54 AM 42.1587 -78.8342 355° North 382 440 20,900 -2,600 Descending FlightAware ADS-B (CYYZ)
Tue 12:28:24 AM 42.2096 -78.8408 355° North 373 429 19,600 -2,600 Descending FlightAware ADS-B (CYYZ)
Tue 12:28:54 AM 42.2615 -78.8476 355° North 366 421 18,300 -2,400 Descending FlightAware ADS-B (CYYZ)
Tue 12:29:24 AM 42.3109 -78.8540 355° North 353 406 17,200 -2,136 Descending FlightAware ADS-B (CYYZ)
Tue 12:29:53 AM 42.3586 -78.8601 355° North 341 392 16,200 -2,200 Descending FlightAware ADS-B (CYYZ)
Tue 12:30:24 AM 42.4042 -78.8660 355° North 333 383 15,000 -2,361 Descending FlightAware ADS-B (CYYZ)
Tue 12:30:54 AM 42.4515 -78.8724 355° North 325 374 13,800 -2,300 Descending FlightAware ADS-B (CYYZ)
Tue 12:31:24 AM 42.4955 -78.8784 355° North 322 371 12,700 -2,200 Descending FlightAware ADS-B (CYYZ)
Tue 12:31:54 AM 42.5403 -78.8842 355° North 319 367 11,600 -1,600 Descending FlightAware ADS-B (CYYZ)
Tue 12:32:24 AM 42.5812 -78.8898 355° North 294 338 11,100 -1,000 Descending FlightAware ADS-B (CYYZ)
Tue 12:32:54 AM 42.6197 -78.8944 355° North 266 306 10,600 -1,200 Descending FlightAware ADS-B (CYYZ)
Tue 12:33:24 AM 42.6571 -78.8969 North 272 313 9,900 -1,600 Descending FlightAware ADS-B (CYYZ)
Tue 12:33:39 AM 42.6757 -78.8946 North 278 320 9,400 -2,000 Descending FlightAware ADS-B (CYYZ)
Tue 12:33:54 AM 42.6955 -78.8920 North 281 323 8,900 -1,600 Descending FlightAware ADS-B (CYYZ)
Tue 12:34:09 AM 42.7139 -78.8895 North 278 320 8,600 -1,600 Descending FlightAware ADS-B (CYYZ)
Tue 12:34:24 AM 42.7331 -78.8869 North 278 320 8,100 -1,800 Descending FlightAware ADS-B (CYYZ)
Tue 12:34:39 AM 42.7535 -78.8842 North 281 323 7,700 -1,548 Descending FlightAware ADS-B (CYYZ)
Tue 12:34:55 AM 42.7726 -78.8817 North 280 322 7,300 -1,400 Descending FlightAware ADS-B (CYYZ)
Tue 12:35:09 AM 42.7900 -78.8795 North 278 320 7,000 -1,448 Descending FlightAware ADS-B (CYYZ)
Tue 12:35:24 AM 42.8087 -78.8772 North 277 319 6,600 -1,200 Descending FlightAware ADS-B (CYYZ)
Tue 12:35:39 AM 42.8286 -78.8747 North 273 314 6,400 -514 Descending FlightAware ADS-B (CYYZ)
Tue 12:35:59 AM 42.8534 -78.8716 North 269 310 6,300 -514 Descending FlightAware ADS-B (CYYZ)
Tue 12:36:14 AM 42.8736 -78.8691 North 269 310 6,100 -1,200 Descending FlightAware ADS-B (CYYZ)
Tue 12:36:29 AM 42.8891 -78.8670 North 260 299 5,700 -2,069 Descending FlightAware ADS-B (CYYZ)
Tue 12:36:43 AM 42.9077 -78.8645 North 257 296 5,100 -2,200 Descending FlightAware ADS-B (CYYZ)
Tue 12:36:59 AM 42.9257 -78.8620 North 256 295 4,600 -1,548 Descending FlightAware ADS-B (CYYZ)
Tue 12:37:14 AM 42.9423 -78.8597 North 245 282 4,300 -1,219 Descending FlightAware ADS-B (CYYZ)
Tue 12:38:03 AM 42.9967 -78.8526 North 219 252 3,300 -880 Descending FlightAware ADS-B (CYYZ)
Tue 12:38:29 AM 43.0192 -78.8495 North 186 214 3,200 -162 Descending FlightAware ADS-B (CYYZ)
Tue 12:38:40 AM 43.0284 -78.8475 14° North 175 201 3,200 -400 Level FlightAware ADS-B (CYYZ)
Tue 12:38:44 AM 43.0315 -78.8461 19° North 174 200 3,100 -1,696 Descending FlightAware ADS-B (CYYZ)
Tue 12:39:26 AM 43.0583 -78.8292 19° North 174 200 1,900 -824 Descending Cleveland Center
Tue 12:40:26 AM 43.1053 -78.8328 357° North 178 205 1,700 -300 Descending Cleveland Center
Tue 12:41:26 AM 43.1092 -78.8772 277° West 137 158 1,300 -400 Descending Cleveland Center
Tue 12:43:00 AM 43.1000 -78.9333 236° Southwest  Level FlightAware Approximate
Tue 12:50:00 AM 43.1076 -78.9458 236° Southwest  Level Estimated

Login

Don't have an account? Register now (free) for customized features, flight alerts, and more!